Terminal Aerodrome Forecast
Issued by NWS

Home | Current Version | Previous Version | Text Only | Print | Product List | Glossary On
Versions: 1 2 3 4 5 6 7 8 9 10 11 12 13 14 15
000
FTUS44 KLIX 192300
TAFGPT
TAF
KGPT 192332Z 2000/2024 12010KT P6SM FEW040 SCT250
     FM200200 10007KT P6SM SCT250
     FM201400 08011KT P6SM FEW250
     FM201700 07012KT P6SM SCT045=

USA.gov is the U.S. government's official web portal to all federal, state and local government web resources and services.